Terminal Aerodrome Forecast
Issued by NWS Wakefield, VA

Home | Current Version | Previous Version | Text Only | Print | Product List | Glossary On
Versions: 1 2 3 4 5 6 7 8 9 10 11 12 13 14 15
000
FTUS41 KAKQ 281120
TAFORF
TAF
KORF 281120Z 2812/2912 04008KT P6SM SKC
     FM282100 10006KT P6SM SKC
     FM290100 16005KT P6SM SKC
     FM290700 20005KT P6SM SKC=

USA.gov is the U.S. government's official web portal to all federal, state and local government web resources and services.